TimeCDT,TemperatureF,Dew PointF,Humidity,Sea Level PressureIn,VisibilityMPH,Wind Direction,Wind SpeedMPH,Gust SpeedMPH,PrecipitationIn,Events,Conditions,WindDirDegrees,DateUTC
12:53 AM,62.1,57.0,84,30.14,10.0,East,6.9,-,N/A,,Clear,80,2011-10-03 05:53:00
2:53 AM,59.0,55.9,90,30.14,10.0,NE,5.8,-,N/A,,Clear,40,2011-10-03 07:53:00
3:53 AM,59.0,55.9,90,30.14,10.0,NE,4.6,-,N/A,,Clear,50,2011-10-03 08:53:00
4:53 AM,57.9,55.9,93,30.15,10.0,ENE,3.5,-,N/A,,Clear,60,2011-10-03 09:53:00
5:53 AM,57.9,55.0,90,30.15,10.0,NE,3.5,-,N/A,,Clear,40,2011-10-03 10:53:00
6:53 AM,55.9,54.0,93,30.17,10.0,NE,5.8,-,N/A,,Clear,40,2011-10-03 11:53:00
7:53 AM,57.9,55.9,93,30.19,10.0,NE,3.5,-,N/A,,Clear,40,2011-10-03 12:53:00
8:53 AM,66.0,60.1,81,30.20,10.0,NE,8.1,-,N/A,,Clear,40,2011-10-03 13:53:00
9:53 AM,73.9,59.0,59,30.22,10.0,NE,9.2,-,N/A,,Clear,40,2011-10-03 14:53:00
10:53 AM,79.0,55.9,45,30.22,10.0,ENE,12.7,18.4,N/A,,Clear,70,2011-10-03 15:53:00
11:53 AM,81.0,52.0,36,30.22,10.0,ENE,9.2,-,N/A,,Clear,60,2011-10-03 16:53:00
12:53 PM,82.9,52.0,34,30.20,10.0,East,6.9,-,N/A,,Clear,80,2011-10-03 17:53:00
1:53 PM,82.9,54.0,37,30.17,10.0,ESE,13.8,21.9,N/A,,Clear,110,2011-10-03 18:53:00
2:53 PM,82.4,53.6,37,30.15,10.0,ESE,12.7,20.7,N/A,,Clear,110,2011-10-03 19:53:00
3:53 PM,82.0,53.1,37,30.15,10.0,ESE,15.0,24.2,N/A,,Clear,120,2011-10-03 20:53:00
4:53 PM,81.0,53.1,38,30.14,10.0,ESE,15.0,21.9,N/A,,Clear,120,2011-10-03 21:53:00
5:53 PM,78.1,51.1,39,30.14,10.0,ESE,13.8,23.0,N/A,,Clear,110,2011-10-03 22:53:00
6:53 PM,75.0,48.9,40,30.14,10.0,ESE,11.5,-,N/A,,Clear,110,2011-10-03 23:53:00
7:53 PM,69.8,55.4,60,30.14,10.0,ESE,8.1,-,N/A,,Clear,110,2011-10-04 00:53:00
8:53 PM,66.0,57.9,75,30.16,10.0,East,5.8,-,N/A,,Clear,90,2011-10-04 01:53:00
9:53 PM,66.9,60.1,79,30.17,10.0,East,8.1,-,N/A,,Clear,80,2011-10-04 02:53:00
10:53 PM,64.0,60.1,87,30.17,10.0,ENE,5.8,-,N/A,,Clear,70,2011-10-04 03:53:00
11:53 PM,63.0,59.0,87,30.17,10.0,ENE,4.6,-,N/A,,Clear,70,2011-10-04 04:53:00